Hauptseite
METAR-TAF:

METAR-TAF

Flughäfen :

RAF Brize Norton

Brize Norton, England

Breite: 51-45N, Länge: 001-35W, Höhe: 88 m

Beobachtung

Neuester Wetterbericht von vor 45 Minuten, um 10:50 UTC
Wind 3 kt aus Süd
Temperatur 24°C
Luftfeuchtigkeit 44%
Luftdruck 1019 hPa
Sichtweite 10 km oder mehr
Leicht bewölkt in der Höhe von 4600 ft
Durchbrochene Bewölkung in der Höhe von 19000 ft

METAR: EGVN 191050Z 19003KT 9999 FEW046 BKN190 24/11 Q1019 NOSIG

Zeit: 12:35 (11:35 UTC)

Prognose

Neuester Wetterbericht von vor 1 Stunde und 14 Minuten, um 10:21 UTC
Gültige Prognose vom 19 um 12 UTC bis 20 um 12 UTC
Wind 3 kt aus unterschiedlichen Richtungen
Sichtweite 10 km oder mehr
keine Wolken unter 1500 m und keine Kumulonimbus oder Gewitterwolken

TAF: EGVN 191021Z 1912/2012 VRB03KT CAVOK

Wetterbeobachtungen und Prognosen von mehr als 4000 Flughäfen (METAR und TAF Bericht).

Die verfügbaren Stationen werden durch gelbe und rote Markierungen auf der Karte dargestellt.

Führen Sie die Maus auf sie, um den Namen der Station zu sehen.

Darauf klicken, um die Beobachtung von Wetterbeobachtungen und Prognosen zu sehen.

Um die Karte zu ändern : klicken Sie auf den grünen Tasten mit einem schwarzen Kreuz Zum Vergrößern, auf den grünen Button mit einem Gedankenstrich zu verkleinern, oder auf die grünen Pfeile für benachbarte Karten.


METAR-TAF: